KFET/FET METAR and TAF weather

Enter ICAO airport designator
Station Type Date Time Source
KFET METAR 2023/11/30 23:15 UTC NOAA

KFET 302315Z AUTO 35007KT 10SM CLR 01/M06 A2989 RMK AO2 T00131060


Station Type Date Time Source
KFET Decoded METAR 2023/11/30 23:15 UTC NOAA

Fremont Municipal Airport, NE, United States (KFET) 41-27N 096-31W
Nov 30, 2023 - 06:15 PM EST / 2023.11.30 2315 UTC
Wind: from the N (350 degrees) at 8 MPH (7 KT):0
Visibility: 10 mile(s):0
Sky conditions: clear
Temperature: 34.3 F (1.3 C)
Windchill: 28 F (-2 C):1
Dew Point: 21.2 F (-6.0 C)
Relative Humidity: 58%
Pressure (altimeter): 29.89 in. Hg (1012 hPa)
ob: KFET 302315Z AUTO 35007KT 10SM CLR 01/M06 A2989 RMK AO2 T00131060
cycle: 23

Station Type Date Time Source
KFET TAF UTC NOAA

Error!

Example: see airport list